createdAt,value
2019-04-04T00:00:58.873Z,51.80
2019-04-04T00:03:35.640Z,49.85
2019-04-04T00:06:12.579Z,44.50
2019-04-04T00:08:49.260Z,53.50
2019-04-04T00:11:25.818Z,43.92
2019-04-04T00:14:02.975Z,41.70
2019-04-04T00:16:39.646Z,38.28
2019-04-04T00:19:16.571Z,36.55
2019-04-04T00:21:53.921Z,35.60
2019-04-04T00:24:30.894Z,36.73
2019-04-04T00:27:08.078Z,38.40
2019-04-04T00:29:46.007Z,36.03
2019-04-04T00:32:22.941Z,35.33
2019-04-04T00:35:00.465Z,34.92
2019-04-04T00:37:40.899Z,33.23
2019-04-04T00:40:16.647Z,32.93
2019-04-04T00:42:53.671Z,33.53
2019-04-04T00:45:30.520Z,34.55
2019-04-04T00:48:07.101Z,34.30
2019-04-04T00:50:43.862Z,34.50
2019-04-04T00:53:20.003Z,32.83
2019-04-04T00:55:56.241Z,36.65
2019-04-04T00:58:33.569Z,35.33
2019-04-04T01:01:10.437Z,35.90
2019-04-04T01:03:47.245Z,33.23
2019-04-04T01:06:25.805Z,33.70
2019-04-04T01:09:02.374Z,32.45
2019-04-04T01:11:40.499Z,33.70
2019-04-04T01:14:16.990Z,32.63
2019-04-04T01:16:53.928Z,33.70
2019-04-04T01:19:30.354Z,33.58
2019-04-04T01:22:06.841Z,36.05
2019-04-04T01:24:43.438Z,35.65
2019-04-04T01:27:19.953Z,35.15
2019-04-04T01:29:56.555Z,33.67
2019-04-04T01:32:32.752Z,29.57
2019-04-04T01:35:09.683Z,26.25
2019-04-04T01:37:46.995Z,25.25
2019-04-04T01:40:24.199Z,22.85
2019-04-04T01:43:01.323Z,22.55
2019-04-04T01:45:37.600Z,22.48
2019-04-04T01:48:13.885Z,23.40
2019-04-04T01:50:53.434Z,22.48
2019-04-04T01:53:30.170Z,23.42
2019-04-04T01:56:07.539Z,21.97
2019-04-04T01:58:44.154Z,22.25
2019-04-04T02:01:21.675Z,19.70
2019-04-04T02:03:58.357Z,20.57
2019-04-04T02:06:35.405Z,20.55
2019-04-04T02:09:12.709Z,20.05
2019-04-04T02:11:49.037Z,20.35
2019-04-04T02:14:27.118Z,19.50
2019-04-04T02:17:04.120Z,21.12
2019-04-04T02:19:40.907Z,20.50
2019-04-04T02:22:19.252Z,20.02
2019-04-04T02:24:55.777Z,19.07
2019-04-04T02:27:33.139Z,19.67
2019-04-04T02:30:14.629Z,20.30
2019-04-04T02:32:47.315Z,19.82
2019-04-04T02:35:23.842Z,20.00
2019-04-04T02:38:00.860Z,19.02
2019-04-04T02:40:40.949Z,18.95
2019-04-04T02:43:16.606Z,18.12
2019-04-04T02:45:53.203Z,18.40
2019-04-04T02:48:30.533Z,18.32
2019-04-04T02:51:07.931Z,19.30
2019-04-04T02:53:44.885Z,18.55
2019-04-04T02:56:21.935Z,19.30
2019-04-04T02:58:58.959Z,19.15
2019-04-04T03:01:35.326Z,19.32
2019-04-04T03:04:13.881Z,19.92
2019-04-04T03:06:50.530Z,19.65
2019-04-04T03:09:27.834Z,19.17
2019-04-04T03:12:05.658Z,19.25
2019-04-04T03:14:42.351Z,19.82
2019-04-04T03:17:19.565Z,20.85
2019-04-04T03:19:57.712Z,19.85
2019-04-04T03:22:34.428Z,20.45
2019-04-04T03:25:14.243Z,19.07
2019-04-04T03:27:49.380Z,20.35
2019-04-04T03:30:26.493Z,20.70
2019-04-04T03:33:03.747Z,19.32
2019-04-04T03:35:41.365Z,19.92
2019-04-04T03:38:18.416Z,18.15
2019-04-04T03:40:58.070Z,17.15
2019-04-04T03:43:35.283Z,16.62
2019-04-04T03:46:11.795Z,15.32
2019-04-04T03:48:50.895Z,12.68
2019-04-04T03:51:26.205Z,14.13
2019-04-04T03:54:05.308Z,14.65
2019-04-04T03:56:41.595Z,14.75
2019-04-04T03:59:17.855Z,15.75
2019-04-04T04:01:54.349Z,15.65
2019-04-04T04:04:30.934Z,16.30
2019-04-04T04:07:07.603Z,15.93
2019-04-04T04:09:44.292Z,15.90
2019-04-04T04:12:21.195Z,17.62
2019-04-04T04:14:57.622Z,16.42
2019-04-04T04:17:36.265Z,15.48
2019-04-04T04:20:12.217Z,15.63
2019-04-04T04:22:51.003Z,15.93
2019-04-04T04:25:26.605Z,16.55
2019-04-04T04:28:03.688Z,16.30
2019-04-04T04:30:40.822Z,16.37
2019-04-04T04:33:17.193Z,16.77
2019-04-04T04:35:53.310Z,16.70
2019-04-04T04:38:29.922Z,17.02
2019-04-04T04:41:06.660Z,17.45
2019-04-04T04:43:43.214Z,17.25
2019-04-04T04:46:19.963Z,17.35
2019-04-04T04:48:57.118Z,15.93
2019-04-04T04:51:34.104Z,16.52
2019-04-04T04:54:10.330Z,16.40
2019-04-04T04:56:46.629Z,15.98
2019-04-04T04:59:24.475Z,15.68
2019-04-04T05:02:01.591Z,15.35
2019-04-04T05:04:38.351Z,15.90
2019-04-04T05:07:15.149Z,14.90
2019-04-04T05:09:52.498Z,15.35
2019-04-04T05:12:29.226Z,16.00
2019-04-04T05:15:05.777Z,15.95
2019-04-04T05:17:42.602Z,14.87
2019-04-04T05:20:19.987Z,15.08
2019-04-04T05:22:56.826Z,14.90
2019-04-04T05:25:33.089Z,14.87
2019-04-04T05:28:11.433Z,15.83
2019-04-04T05:30:49.271Z,14.45
2019-04-04T05:33:27.407Z,14.60
2019-04-04T05:36:05.240Z,15.63
2019-04-04T05:38:42.906Z,14.75
2019-04-04T05:41:20.901Z,14.80
2019-04-04T05:43:57.696Z,14.78
2019-04-04T05:46:33.817Z,15.15
2019-04-04T05:49:11.106Z,14.78
2019-04-04T05:51:48.419Z,15.60
2019-04-04T05:54:25.874Z,14.93
2019-04-04T05:57:03.392Z,15.18
2019-04-04T05:59:42.314Z,15.08
2019-04-04T06:02:18.012Z,18.90
2019-04-04T06:04:55.403Z,18.75
2019-04-04T06:07:34.218Z,16.12
2019-04-04T06:10:11.995Z,15.13
2019-04-04T06:12:48.071Z,15.68
2019-04-04T06:15:26.093Z,15.35
2019-04-04T06:18:02.992Z,15.40
2019-04-04T06:20:40.810Z,15.20
2019-04-04T06:23:20.448Z,15.08
2019-04-04T06:25:55.855Z,15.05
2019-04-04T06:28:32.840Z,15.98
2019-04-04T06:31:09.298Z,14.80
2019-04-04T06:33:46.140Z,14.43
2019-04-04T06:36:22.955Z,14.70
2019-04-04T06:38:59.289Z,15.53
2019-04-04T06:41:37.726Z,14.83
2019-04-04T06:44:14.478Z,14.95
2019-04-04T06:46:53.320Z,15.05
2019-04-04T06:49:29.339Z,14.95
2019-04-04T06:52:09.160Z,14.50
2019-04-04T06:54:45.218Z,14.73
2019-04-04T06:57:21.415Z,15.20
2019-04-04T06:59:58.603Z,14.75
2019-04-04T07:02:35.750Z,14.30
2019-04-04T07:05:13.148Z,15.28
2019-04-04T07:07:50.132Z,14.73
2019-04-04T07:10:26.915Z,14.47
2019-04-04T07:13:20.151Z,13.95
2019-04-04T07:15:46.789Z,13.25
2019-04-04T07:18:19.316Z,13.62
2019-04-04T07:20:56.042Z,13.90
2019-04-04T07:23:33.099Z,14.65
2019-04-04T07:26:14.577Z,13.83
2019-04-04T07:28:51.828Z,14.30
2019-04-04T07:31:27.014Z,13.83
2019-04-04T07:34:05.632Z,14.05
2019-04-04T07:36:41.941Z,14.47
2019-04-04T07:39:18.657Z,14.10
2019-04-04T07:41:55.535Z,14.10
2019-04-04T07:44:33.016Z,13.98
2019-04-04T07:47:10.652Z,14.28
2019-04-04T07:49:47.414Z,14.15
2019-04-04T07:52:23.388Z,13.22
2019-04-04T07:55:00.213Z,13.80
2019-04-04T07:57:36.819Z,13.80
2019-04-04T08:00:14.760Z,13.13
2019-04-04T08:02:52.612Z,13.58
2019-04-04T08:05:29.246Z,12.63
2019-04-04T08:08:07.534Z,13.88
2019-04-04T08:10:44.375Z,13.88
2019-04-04T08:13:21.122Z,13.55
2019-04-04T08:15:58.389Z,12.53
2019-04-04T08:18:35.853Z,12.90
2019-04-04T08:21:12.897Z,13.13
2019-04-04T08:23:49.404Z,13.08
2019-04-04T08:26:26.283Z,12.82
2019-04-04T08:29:03.181Z,12.95
2019-04-04T08:31:40.589Z,12.58
2019-04-04T08:34:17.127Z,13.28
2019-04-04T08:36:53.688Z,13.13
2019-04-04T08:39:30.659Z,12.78
2019-04-04T08:42:07.057Z,13.95
2019-04-04T08:44:43.490Z,13.15
2019-04-04T08:47:20.673Z,12.50
2019-04-04T08:49:58.458Z,12.23
2019-04-04T08:52:35.417Z,12.60
2019-04-04T08:55:11.780Z,12.82
2019-04-04T08:57:48.697Z,13.40
2019-04-04T09:00:25.253Z,12.50
2019-04-04T09:03:01.802Z,12.68
2019-04-04T09:05:38.440Z,13.35
2019-04-04T09:08:15.090Z,13.38
2019-04-04T09:10:53.072Z,13.55
2019-04-04T09:13:30.553Z,14.18
2019-04-04T09:16:07.017Z,13.53
2019-04-04T09:18:43.596Z,13.30
2019-04-04T09:21:20.380Z,14.05
2019-04-04T09:24:00.368Z,13.10
2019-04-04T09:26:36.409Z,14.58
2019-04-04T09:29:13.681Z,15.08
2019-04-04T09:31:51.073Z,14.33
2019-04-04T09:34:28.845Z,14.75
2019-04-04T09:37:08.635Z,13.98
2019-04-04T09:39:45.270Z,15.45
2019-04-04T09:42:22.009Z,14.93
2019-04-04T09:44:58.717Z,15.08
2019-04-04T09:47:36.031Z,15.08
2019-04-04T09:50:13.196Z,14.83
2019-04-04T09:52:50.089Z,15.35
2019-04-04T09:55:26.668Z,14.53
2019-04-04T09:58:03.000Z,15.15
2019-04-04T10:00:40.258Z,14.90
2019-04-04T10:03:16.814Z,15.30
2019-04-04T10:05:54.163Z,15.85
2019-04-04T10:08:30.630Z,14.65
2019-04-04T10:11:07.367Z,14.60
2019-04-04T10:13:44.381Z,15.50
2019-04-04T10:16:20.936Z,15.28
2019-04-04T10:18:57.344Z,15.00
2019-04-04T10:21:34.361Z,14.93
2019-04-04T10:24:11.054Z,15.28
2019-04-04T10:26:47.926Z,16.05
2019-04-04T10:29:24.853Z,15.83
2019-04-04T10:32:01.354Z,15.40
2019-04-04T10:34:38.991Z,15.70
2019-04-04T10:37:15.786Z,16.17
2019-04-04T10:39:52.445Z,15.80
2019-04-04T10:42:28.928Z,16.32
2019-04-04T10:45:06.767Z,15.60
2019-04-04T10:47:44.311Z,15.93
2019-04-04T10:50:22.366Z,16.87
2019-04-04T10:52:58.787Z,16.62
2019-04-04T10:55:36.202Z,16.17
2019-04-04T10:58:13.380Z,16.45
2019-04-04T11:00:50.203Z,16.67
2019-04-04T11:03:26.442Z,15.95
2019-04-04T11:06:04.060Z,16.57
2019-04-04T11:08:41.105Z,16.20
2019-04-04T11:11:18.064Z,16.35
2019-04-04T11:13:54.891Z,16.62
2019-04-04T11:16:31.512Z,16.75
2019-04-04T11:19:09.781Z,16.73
2019-04-04T11:21:46.004Z,17.35
2019-04-04T11:24:22.588Z,18.25
2019-04-04T11:26:59.810Z,20.02
2019-04-04T11:29:37.287Z,20.90
2019-04-04T11:32:13.933Z,19.70
2019-04-04T11:34:53.265Z,19.98
2019-04-04T11:37:29.644Z,18.50
2019-04-04T11:40:07.898Z,18.60
2019-04-04T11:42:45.057Z,20.25
2019-04-04T11:45:21.646Z,22.35
2019-04-04T11:47:59.847Z,29.50
2019-04-04T11:50:39.522Z,21.90
2019-04-04T11:53:14.727Z,20.85
2019-04-04T11:55:51.915Z,21.55
2019-04-04T11:58:28.490Z,24.32
2019-04-04T12:01:06.678Z,22.13
2019-04-04T12:03:43.163Z,23.05
2019-04-04T12:06:19.830Z,21.75
2019-04-04T12:08:56.416Z,25.82
2019-04-04T12:11:33.694Z,28.92
2019-04-04T12:14:10.629Z,29.82
2019-04-04T12:16:47.733Z,36.98
2019-04-04T12:19:25.091Z,32.75
2019-04-04T12:22:02.092Z,27.85
2019-04-04T12:24:38.542Z,32.38
2019-04-04T12:27:15.246Z,31.37
2019-04-04T12:29:52.093Z,35.23
2019-04-04T12:32:29.083Z,33.45
2019-04-04T12:35:06.061Z,36.15
2019-04-04T12:37:41.990Z,31.45
2019-04-04T12:40:20.841Z,36.75
2019-04-04T12:42:56.045Z,34.33
2019-04-04T12:45:33.058Z,33.45
2019-04-04T12:48:10.265Z,34.85
2019-04-04T12:50:48.447Z,32.58
2019-04-04T12:53:24.664Z,34.85
2019-04-04T12:56:01.466Z,34.13
2019-04-04T12:58:38.422Z,34.18
2019-04-04T13:01:14.771Z,36.17
2019-04-04T13:03:52.403Z,33.28
2019-04-04T13:06:29.226Z,34.20
2019-04-04T13:09:06.274Z,34.20
2019-04-04T13:11:43.050Z,34.75
2019-04-04T13:14:20.077Z,33.73
2019-04-04T13:16:56.574Z,33.02
2019-04-04T13:19:33.136Z,33.85
2019-04-04T13:22:10.769Z,33.23
2019-04-04T13:24:47.687Z,30.72
2019-04-04T13:27:24.658Z,31.65
2019-04-04T13:30:00.852Z,32.00
2019-04-04T13:32:37.975Z,32.58
2019-04-04T13:35:15.446Z,30.35
2019-04-04T13:37:52.193Z,32.88
2019-04-04T13:40:28.087Z,30.25
2019-04-04T13:43:05.118Z,31.52
2019-04-04T13:45:41.657Z,30.68
2019-04-04T13:48:18.713Z,31.70
2019-04-04T13:50:55.469Z,30.00
2019-04-04T13:53:31.831Z,30.57
2019-04-04T13:56:08.937Z,32.03
2019-04-04T13:58:47.457Z,29.67
2019-04-04T14:01:25.408Z,30.62
2019-04-04T14:04:02.297Z,32.03
2019-04-04T14:06:40.136Z,31.48
2019-04-04T14:09:17.523Z,33.83
2019-04-04T14:11:54.321Z,34.80
2019-04-04T14:14:30.945Z,43.30
2019-04-04T14:17:07.605Z,44.25
2019-04-04T14:19:44.793Z,45.03
2019-04-04T14:22:21.302Z,43.25
2019-04-04T14:24:58.591Z,42.05
2019-04-04T14:27:36.697Z,39.10
2019-04-04T14:30:14.715Z,38.85
2019-04-04T14:32:52.072Z,36.70
2019-04-04T14:35:28.672Z,36.85
2019-04-04T14:38:05.001Z,41.90
2019-04-04T14:40:42.379Z,50.43
2019-04-04T14:43:19.111Z,50.75
2019-04-04T14:45:56.443Z,41.30
2019-04-04T14:48:33.146Z,41.33
2019-04-04T14:51:10.302Z,44.80
2019-04-04T14:53:47.131Z,42.70
2019-04-04T14:56:23.730Z,41.02
2019-04-04T14:59:00.497Z,39.63
2019-04-04T15:01:37.206Z,41.68
2019-04-04T15:04:14.121Z,41.70
2019-04-04T15:06:51.198Z,39.30
2019-04-04T15:09:27.742Z,38.42
2019-04-04T15:12:04.333Z,39.85
2019-04-04T15:14:41.158Z,40.08
2019-04-04T15:17:18.156Z,38.50
2019-04-04T15:19:55.208Z,37.48
2019-04-04T15:22:33.000Z,35.38
2019-04-04T15:25:09.228Z,38.35
2019-04-04T15:27:45.699Z,38.50
2019-04-04T15:30:22.379Z,38.38
2019-04-04T15:33:02.381Z,38.65
2019-04-04T15:35:38.588Z,35.78
2019-04-04T15:38:15.682Z,35.05
2019-04-04T15:40:52.743Z,34.92
2019-04-04T15:43:30.605Z,36.80
2019-04-04T15:46:07.045Z,35.83
2019-04-04T15:48:43.665Z,32.88
2019-04-04T15:51:20.566Z,35.23
2019-04-04T15:53:57.258Z,36.80
2019-04-04T15:56:35.131Z,38.28
2019-04-04T15:59:11.952Z,36.00
2019-04-04T16:01:49.350Z,36.05
2019-04-04T16:04:25.807Z,34.65
2019-04-04T16:07:02.303Z,34.20
2019-04-04T16:09:39.225Z,33.95
2019-04-04T16:12:16.331Z,34.90
2019-04-04T16:14:53.524Z,35.75
2019-04-04T16:17:30.739Z,35.52
2019-04-04T16:20:07.695Z,35.35
2019-04-04T16:22:44.389Z,36.58
2019-04-04T16:25:21.656Z,33.48
2019-04-04T16:27:58.023Z,35.45
2019-04-04T16:30:35.221Z,34.88
2019-04-04T16:33:12.501Z,34.65
2019-04-04T16:35:49.322Z,36.85
2019-04-04T16:38:26.032Z,36.45
2019-04-04T16:41:02.558Z,32.70
2019-04-04T16:43:38.947Z,33.67
2019-04-04T16:46:16.185Z,37.13
2019-04-04T16:48:52.950Z,35.33
2019-04-04T16:51:29.830Z,33.95
2019-04-04T16:54:06.975Z,32.40
2019-04-04T16:56:43.888Z,39.25
2019-04-04T16:59:21.949Z,42.03
2019-04-04T17:01:58.805Z,42.98
2019-04-04T17:04:35.619Z,40.65
2019-04-04T17:07:12.834Z,43.48
2019-04-04T17:09:49.458Z,41.35
2019-04-04T17:12:26.106Z,34.25
2019-04-04T17:15:03.261Z,39.53
2019-04-04T17:17:39.883Z,38.70
2019-04-04T17:20:17.160Z,40.58
2019-04-04T17:22:53.436Z,42.00
2019-04-04T17:25:30.860Z,35.90
2019-04-04T17:28:08.331Z,38.88
2019-04-04T17:30:46.116Z,43.73
2019-04-04T17:33:23.057Z,42.60
2019-04-04T17:35:59.467Z,52.40
2019-04-04T17:38:39.382Z,49.70
2019-04-04T17:41:16.245Z,48.28
2019-04-04T17:43:52.872Z,45.78
2019-04-04T17:46:29.762Z,37.17
2019-04-04T17:49:06.627Z,39.50
2019-04-04T17:51:43.718Z,41.08
2019-04-04T17:54:20.222Z,39.67
2019-04-04T17:56:57.140Z,44.53
2019-04-04T17:59:51.424Z,43.45
2019-04-04T18:02:28.843Z,42.90
2019-04-04T18:05:05.576Z,44.60
2019-04-04T18:07:42.411Z,45.52
2019-04-04T18:10:20.421Z,44.70
2019-04-04T18:12:57.285Z,43.80
2019-04-04T18:15:33.723Z,45.45
2019-04-04T18:18:10.295Z,44.23
2019-04-04T18:20:47.034Z,39.75
2019-04-04T18:23:23.717Z,41.58
2019-04-04T18:26:00.338Z,55.78
2019-04-04T18:28:39.219Z,51.65
2019-04-04T18:31:14.530Z,41.40
2019-04-04T18:33:50.987Z,49.20
2019-04-04T18:36:27.677Z,51.73
2019-04-04T18:39:06.102Z,55.20
2019-04-04T18:41:42.533Z,54.63
2019-04-04T18:44:18.809Z,52.60
2019-04-04T18:46:55.351Z,40.92
2019-04-04T18:49:32.077Z,40.95
2019-04-04T18:52:09.097Z,50.15
2019-04-04T18:54:45.563Z,50.70
2019-04-04T18:57:22.697Z,43.85
2019-04-04T18:59:59.386Z,44.67
2019-04-04T19:02:36.129Z,47.73
2019-04-04T19:05:13.509Z,51.45
2019-04-04T19:07:50.399Z,49.48
2019-04-04T19:10:27.120Z,50.83
2019-04-04T19:13:05.749Z,51.45
2019-04-04T19:15:41.556Z,44.50
2019-04-04T19:18:18.173Z,46.53
2019-04-04T19:20:54.923Z,47.10
2019-04-04T19:23:31.542Z,52.65
2019-04-04T19:26:07.933Z,45.43
2019-04-04T19:28:44.951Z,54.05
2019-04-04T19:31:21.750Z,45.48
2019-04-04T19:33:58.078Z,46.80
2019-04-04T19:36:34.684Z,47.38
2019-04-04T19:39:18.006Z,51.13
2019-04-04T19:41:54.622Z,46.53
2019-04-04T19:44:31.203Z,49.48
2019-04-04T19:47:07.657Z,45.17
2019-04-04T19:49:44.438Z,45.70
2019-04-04T19:52:21.162Z,46.88
2019-04-04T19:54:57.279Z,45.75
2019-04-04T19:57:34.153Z,45.30
2019-04-04T20:00:12.147Z,48.38
2019-04-04T20:02:49.115Z,48.40
2019-04-04T20:05:26.048Z,52.30
2019-04-04T20:08:02.720Z,49.35
2019-04-04T20:10:39.235Z,53.25
2019-04-04T20:13:16.027Z,59.80
2019-04-04T20:15:52.814Z,62.15
2019-04-04T20:18:29.307Z,53.95
2019-04-04T20:21:05.637Z,62.17
2019-04-04T20:23:42.158Z,54.53
2019-04-04T20:26:18.627Z,55.58
2019-04-04T20:29:03.898Z,53.95
2019-04-04T20:31:40.714Z,54.77
2019-04-04T20:34:17.516Z,56.35
2019-04-04T20:36:54.774Z,55.00
2019-04-04T20:39:31.221Z,60.92
2019-04-04T20:42:07.857Z,55.20
2019-04-04T20:44:44.677Z,53.73
2019-04-04T20:47:21.073Z,56.98
2019-04-04T20:49:57.799Z,53.00
2019-04-04T20:52:34.187Z,52.40
2019-04-04T20:55:10.745Z,53.15
2019-04-04T20:57:47.311Z,52.95
2019-04-04T21:00:24.047Z,54.23
2019-04-04T21:03:01.235Z,56.68
2019-04-04T21:05:38.560Z,56.95
2019-04-04T21:08:14.863Z,55.43
2019-04-04T21:10:51.497Z,58.63
2019-04-04T21:13:28.313Z,60.20
2019-04-04T21:16:05.005Z,63.45
2019-04-04T21:18:41.765Z,66.33
2019-04-04T21:21:18.518Z,64.50
2019-04-04T21:23:55.161Z,66.50
2019-04-04T21:26:31.772Z,61.35
2019-04-04T21:29:08.242Z,58.25
2019-04-04T21:31:45.643Z,55.45
2019-04-04T21:34:22.230Z,60.48
2019-04-04T21:36:58.748Z,59.95
2019-04-04T21:39:35.146Z,58.80
2019-04-04T21:42:11.843Z,56.42
2019-04-04T21:44:49.551Z,58.75
2019-04-04T21:47:44.232Z,54.80
2019-04-04T21:50:20.765Z,55.00
2019-04-04T21:53:15.837Z,56.02
2019-04-04T21:55:52.232Z,51.85
2019-04-04T21:58:28.318Z,53.73
2019-04-04T22:01:05.350Z,52.88
2019-04-04T22:03:41.583Z,51.90
2019-04-04T22:06:19.957Z,51.37
2019-04-04T22:08:56.662Z,51.98
2019-04-04T22:11:33.914Z,49.70
2019-04-04T22:14:21.095Z,52.88
2019-04-04T22:16:48.421Z,52.20
2019-04-04T22:19:25.277Z,53.10
2019-04-04T22:22:02.763Z,47.83
2019-04-04T22:24:39.579Z,48.63
2019-04-04T22:27:16.053Z,48.23
2019-04-04T22:29:52.853Z,52.15
2019-04-04T22:32:29.798Z,47.03
2019-04-04T22:35:08.226Z,47.50
2019-04-04T22:37:44.848Z,47.00
2019-04-04T22:40:21.185Z,51.40
2019-04-04T22:42:58.086Z,49.55
2019-04-04T22:45:34.857Z,48.38
2019-04-04T22:48:12.114Z,51.85
2019-04-04T22:50:48.353Z,52.13
2019-04-04T22:53:25.091Z,46.35
2019-04-04T22:56:01.991Z,50.48
2019-04-04T22:58:38.665Z,50.60
2019-04-04T23:01:15.454Z,54.60
2019-04-04T23:03:52.196Z,54.03
2019-04-04T23:06:28.989Z,48.05
2019-04-04T23:09:06.052Z,52.00
2019-04-04T23:11:42.738Z,56.58
2019-04-04T23:14:19.067Z,52.78
2019-04-04T23:16:55.417Z,55.92
2019-04-04T23:19:32.040Z,49.63
2019-04-04T23:22:09.159Z,48.92
2019-04-04T23:24:45.608Z,52.25
2019-04-04T23:27:22.418Z,53.13
2019-04-04T23:29:58.944Z,54.13
2019-04-04T23:32:35.191Z,49.27
2019-04-04T23:35:11.896Z,52.83
2019-04-04T23:37:48.354Z,54.03
2019-04-04T23:40:24.655Z,52.25
2019-04-04T23:43:01.215Z,56.83
2019-04-04T23:45:37.769Z,54.88
2019-04-04T23:48:14.366Z,50.67
2019-04-04T23:50:51.065Z,51.40
2019-04-04T23:53:27.658Z,52.73
2019-04-04T23:56:03.973Z,53.85
2019-04-04T23:58:40.642Z,53.85
